x

Yucatan Basin - 120 Nm Ese Of Cozumel, Mx (42056) Wave Buoy

4:50 - Mon 3rd Aug 2015 All times are CDT. -5 hours from GMT.

  • Sig Wave height 3.0ft
  • Swell Direction
  • Peak Period 5s
  • Average Period 5s
  • Wind
    11mph, 13mph gusts
  • Sea Temp 85°f
  • Ar Temp 85°f
  • Sea Pressure 1012.9mb
  •  Yucatan Basin - 120 Nm Ese Of Cozumel, Mx
  •  Yucatan Basin - 120 Nm Ese Of Cozumel, Mx

More Historic Weather Station data

Upgrade to MSW Pro to gain access to the past 30 days of data for over 8000 Wavebouys and Weather Stations around the globe.

Join Pro

Comparision Forecast

View Surf forecast
   
Seg 08/03 4:50 3ft 5s 5s 11 13 mph 1012.9mb 85f 85f
3:50 3ft 8s 5s 11
mph
1013mb 85f 85f
2:50 3.5ft 5s 5s 11
mph
1013.2mb 85f 85f
1:50 3ft 6s 5s 9 11 mph 1014mb 85f 85f
12:50 3ft 4s 5s 11 13 mph 1014.3mb 85f 85f
11:50 3ft 5s 5s 11 13 mph 1014.3mb 85f 85f
10:50 2.5ft 5s 5s 11 13 mph 1014.6mb 85f 85f
9:50 3ft 6s 5s 9 11 mph 1014.3mb 84f 84f
8:50 3ft 5s 5s 11
mph
1013.7mb 84f 84f
7:50 3ft 4s 5s 13 16 mph 1012.9mb 84f 84f
6:50 2.5ft 8s 5s 11 13 mph 1012.6mb 84f 84f
5:50 2.5ft 7s 5s 11 13 mph 1012.4mb 84f 83f
4:50 2.5ft 5s 5s 11 16 mph 1012.3mb 84f 81f
3:50 2.5ft 8s 5s 7 9 mph 1012.3mb 84f 83f
2:50 2.5ft 5s 5s 16 18 mph 1012.6mb 85f 82f
1:50 2.5ft 6s 5s 7 9 mph 1013.1mb 85f 82f
12:50 2.5ft 5s 5s 22 27 mph 1013.5mb 85f 79f
Dom 08/02 11:50 2.5ft 5s 5s 11
mph
1014.1mb 85f 84f
10:50 2.5ft 6s 5s 9 13 mph 1014.1mb 85f 84f
8:50 2.5ft 7s 5s 11 13 mph 1013.6mb 85f 83f
7:50 2.5ft 8s 5s 9 11 mph 1013.1mb 85f 83f
6:50 2.5ft 8s 5s 11
mph
1012.9mb 85f 83f
5:50 2.5ft 5s 5s 9 11 mph 1012.5mb 85f 83f
4:50 3ft 4s 5s 7 11 mph 1012.3mb 85f 83f
3:50 3ft 5s 5s 11 16 mph 1012.8mb 85f 83f
2:50 3ft 5s 5s 11 13 mph 1013.2mb 85f 83f
1:50 3.5ft 5s 5s 11 13 mph 1013.5mb 85f 83f
12:50 3ft 5s 5s 13 18 mph 1013.9mb 85f 83f
11:50 3.5ft 4s 5s 9 13 mph 1014.2mb 85f 82f
10:50 3ft 8s 5s 13 16 mph 1014.8mb 85f 84f
9:50 2.5ft 4s 5s 13 16 mph 1014.5mb 84f 83f
8:50 2.5ft 7s 5s 11 13 mph 1014.1mb 84f 83f
7:50 2.5ft 8s 5s 13 20 mph 1013.7mb 84f 83f
6:50 2.5ft 8s 5s 7 9 mph 1013.3mb 84f 84f
5:50 2.5ft 8s 5s 13 16 mph 1012.5mb 84f 82f
4:50 2.5ft 4s 5s 9 11 mph 1012.6mb 84f 84f
3:50 2.5ft 8s 4s 9
mph
1012.5mb 84f 84f
2:50 2.5ft 8s 5s 11 13 mph 1012.9mb 85f 84f
1:50 2ft 8s 4s 11 13 mph 1013.5mb 85f 84f
12:50 2ft 8s 4s 11 13 mph 1014mb 85f 84f
Sáb 08/01 11:50 2ft 8s 4s 11 13 mph 1014.4mb 85f 85f
10:50 2ft 8s 4s 9 11 mph 1014.7mb 85f 85f
9:50 1.6ft 7s 4s 9 11 mph 1014.5mb 85f 85f
8:50 1.6ft 8s 4s 9 11 mph 1014.1mb 85f 85f
7:50 1.3ft 8s 5s 11 13 mph 1013.4mb 85f 84f
6:50 1.6ft 8s 5s 7 9 mph 1012.8mb 85f 85f
5:50 1.6ft 8s 5s 7 9 mph 1013mb 85f 85f
4:50 1.6ft 8s 5s 7 9 mph 1013.4mb 85f 85f
3:50 1.6ft 8s 5s 9
mph
1013.4mb 85f 85f
2:50 1.6ft 8s 5s 9
mph
1013.8mb 85f 85f
1:50 1.6ft 8s 5s 7 9 mph 1014.4mb 85f 84f
12:50 1.6ft 8s 4s 9 11 mph 1014.6mb 85f 84f
11:50 1.6ft 8s 5s 9 11 mph 1015mb 85f 84f
10:50 2ft 8s 5s 9 11 mph 1014.9mb 85f 84f
9:50 2ft 8s 5s 9
mph
1014.8mb 84f 84f
8:50 1.6ft 7s 4s 11
mph
1014.6mb 84f 84f
7:50 1.6ft 8s 5s 9 11 mph 1014.3mb 84f 84f
6:50 1.6ft 8s 4s 9 11 mph 1014.3mb 84f 83f
5:50 2ft 8s 4s 7 9 mph 1014.1mb 84f 83f
4:50 2ft 8s 4s 2 4 mph 1013.8mb 84f 83f
3:50 2.5ft 4s 4s 2
mph
1013.7mb 84f 82f
2:50 2ft 8s 4s 7 9 mph 1014.2mb 84f 82f
1:50 2.5ft 8s 4s 9 11 mph 1015.1mb 84f 81f
12:50 2ft 9s 4s 22 29 mph 1015.5mb 84f 79f
Sex 07/31 11:50 2ft 8s 5s 11
mph
1015.9mb 84f 85f
10:50 2ft 8s 4s 11
mph
1016mb 85f 85f
9:50 2ft 9s 4s 11 13 mph 1015.5mb 85f 85f
8:50 2ft 8s 4s 11 13 mph 1015.2mb 85f 85f
7:50 2ft 8s 5s 11
mph
1014.9mb 85f 85f
6:50 2ft 8s 5s 11 13 mph 1014.3mb 85f 85f
5:50 2ft 8s 5s 11
mph
1014mb 85f 85f
4:50 2ft 8s 5s 11 13 mph 1014mb 86f 85f
3:50 2.5ft 8s 6s 9 11 mph 1014.4mb 86f 85f
2:50 2.5ft 9s 6s 7 9 mph 1015.2mb 86f 84f
1:50 2.5ft 7s 5s 7 9 mph 1015.9mb 86f 84f
12:50 2.5ft 8s 5s 7 11 mph 1016.1mb 85f 84f
11:50 2.5ft 9s 6s 9 11 mph 1016.2mb 85f 84f
10:50 2.5ft 7s 5s 4 7 mph 1016.5mb 85f 84f
9:50 2.5ft 9s 5s 4 7 mph 1016.4mb 85f 84f
8:50 2.5ft 9s 5s 7
mph
1016.3mb 84f 84f
7:50 2.5ft 9s 6s 2 4 mph 1015.8mb 84f 84f
6:50 2.5ft 9s 6s 4 7 mph 1015.5mb 84f 83f
5:50 2.5ft 7s 5s 4
mph
1015.1mb 84f 83f
4:50 2.5ft 8s 5s 7 9 mph 1014.8mb 84f 83f
3:50 3ft 9s 6s 7 9 mph 1014.7mb 85f 84f
2:50 2.5ft 9s 5s 7 9 mph 1015mb 84f 84f
1:50 2.5ft 8s 5s 9
mph
1015.6mb 85f 84f
12:50 2.5ft 9s 5s 7 9 mph 1016.4mb 85f 84f
Qui 07/30 11:50 2.5ft 8s 5s 9
mph
1017mb 85f 84f